sensor_id;sensor_type;location;lat;lon;timestamp;temperature;humidity
68578;SHT31;61668;45.388;11.784;2022-11-18T00:02:11;12.70;86.02
68578;SHT31;61668;45.388;11.784;2022-11-18T00:04:36;12.70;86.08
68578;SHT31;61668;45.388;11.784;2022-11-18T00:07:02;12.69;86.18
68578;SHT31;61668;45.388;11.784;2022-11-18T00:09:27;12.72;86.23
68578;SHT31;61668;45.388;11.784;2022-11-18T00:11:53;12.74;86.22
68578;SHT31;61668;45.388;11.784;2022-11-18T00:14:37;12.75;86.20
68578;SHT31;61668;45.388;11.784;2022-11-18T00:17:03;12.75;86.19
68578;SHT31;61668;45.388;11.784;2022-11-18T00:19:34;12.76;86.21
68578;SHT31;61668;45.388;11.784;2022-11-18T00:22:02;12.79;86.22
68578;SHT31;61668;45.388;11.784;2022-11-18T00:24:30;12.81;86.13
68578;SHT31;61668;45.388;11.784;2022-11-18T00:26:56;12.82;86.11
68578;SHT31;61668;45.388;11.784;2022-11-18T00:29:22;12.80;86.03
68578;SHT31;61668;45.388;11.784;2022-11-18T00:31:50;12.80;86.06
68578;SHT31;61668;45.388;11.784;2022-11-18T00:34:16;12.81;86.14
68578;SHT31;61668;45.388;11.784;2022-11-18T00:36:43;12.80;86.11
68578;SHT31;61668;45.388;11.784;2022-11-18T00:39:10;12.80;86.13
68578;SHT31;61668;45.388;11.784;2022-11-18T00:41:38;12.82;86.19
68578;SHT31;61668;45.388;11.784;2022-11-18T00:44:23;12.82;86.16
68578;SHT31;61668;45.388;11.784;2022-11-18T00:46:48;12.85;86.17
68578;SHT31;61668;45.388;11.784;2022-11-18T00:49:14;12.85;86.10
68578;SHT31;61668;45.388;11.784;2022-11-18T00:51:39;12.84;86.10
68578;SHT31;61668;45.388;11.784;2022-11-18T00:54:05;12.80;86.06
68578;SHT31;61668;45.388;11.784;2022-11-18T00:56:30;12.75;86.11
68578;SHT31;61668;45.388;11.784;2022-11-18T00:58:56;12.72;86.23
68578;SHT31;61668;45.388;11.784;2022-11-18T01:01:22;12.71;86.34
68578;SHT31;61668;45.388;11.784;2022-11-18T01:03:48;12.71;86.41
68578;SHT31;61668;45.388;11.784;2022-11-18T01:06:13;12.71;86.49
68578;SHT31;61668;45.388;11.784;2022-11-18T01:08:39;12.71;86.51
68578;SHT31;61668;45.388;11.784;2022-11-18T01:11:05;12.74;86.51
68578;SHT31;61668;45.388;11.784;2022-11-18T01:13:49;12.74;86.50
68578;SHT31;61668;45.388;11.784;2022-11-18T01:16:20;12.73;86.50
68578;SHT31;61668;45.388;11.784;2022-11-18T01:18:47;12.74;86.50
68578;SHT31;61668;45.388;11.784;2022-11-18T01:21:13;12.73;86.51
68578;SHT31;61668;45.388;11.784;2022-11-18T01:23:39;12.74;86.55
68578;SHT31;61668;45.388;11.784;2022-11-18T01:26:06;12.74;86.60
68578;SHT31;61668;45.388;11.784;2022-11-18T01:28:35;12.74;86.61
68578;SHT31;61668;45.388;11.784;2022-11-18T01:31:12;12.76;86.59
68578;SHT31;61668;45.388;11.784;2022-11-18T01:33:42;12.76;86.62
68578;SHT31;61668;45.388;11.784;2022-11-18T01:36:17;12.77;86.70
68578;SHT31;61668;45.388;11.784;2022-11-18T01:38:51;12.81;86.85
68578;SHT31;61668;45.388;11.784;2022-11-18T01:41:18;12.86;86.84
68578;SHT31;61668;45.388;11.784;2022-11-18T01:43:48;12.89;86.66
68578;SHT31;61668;45.388;11.784;2022-11-18T01:46:22;12.92;86.69
68578;SHT31;61668;45.388;11.784;2022-11-18T01:49:01;12.94;86.68
68578;SHT31;61668;45.388;11.784;2022-11-18T01:51:33;12.97;86.63
68578;SHT31;61668;45.388;11.784;2022-11-18T01:54:04;12.98;86.53
68578;SHT31;61668;45.388;11.784;2022-11-18T01:56:44;12.99;86.53
68578;SHT31;61668;45.388;11.784;2022-11-18T01:59:17;12.98;86.45
68578;SHT31;61668;45.388;11.784;2022-11-18T02:01:46;12.98;86.48
68578;SHT31;61668;45.388;11.784;2022-11-18T02:04:13;12.96;86.46
68578;SHT31;61668;45.388;11.784;2022-11-18T02:06:40;12.96;86.50
68578;SHT31;61668;45.388;11.784;2022-11-18T02:09:08;12.97;86.46
68578;SHT31;61668;45.388;11.784;2022-11-18T02:11:34;12.96;86.44
68578;SHT31;61668;45.388;11.784;2022-11-18T02:14:15;12.97;86.44
68578;SHT31;61668;45.388;11.784;2022-11-18T02:25:09;13.01;86.37
68578;SHT31;61668;45.388;11.784;2022-11-18T02:33:43;13.00;86.44
68578;SHT31;61668;45.388;11.784;2022-11-18T02:39:15;13.02;86.38
68578;SHT31;61668;45.388;11.784;2022-11-18T02:41:46;13.03;86.38
68578;SHT31;61668;45.388;11.784;2022-11-18T02:44:15;13.03;86.29
68578;SHT31;61668;45.388;11.784;2022-11-18T02:46:43;13.02;86.30
68578;SHT31;61668;45.388;11.784;2022-11-18T02:49:21;13.01;86.29
68578;SHT31;61668;45.388;11.784;2022-11-18T02:52:00;12.99;86.30
68578;SHT31;61668;45.388;11.784;2022-11-18T02:54:29;12.98;86.35
68578;SHT31;61668;45.388;11.784;2022-11-18T02:56:57;12.96;86.36
68578;SHT31;61668;45.388;11.784;2022-11-18T02:59:23;12.96;86.40
68578;SHT31;61668;45.388;11.784;2022-11-18T03:01:52;12.95;86.41
68578;SHT31;61668;45.388;11.784;2022-11-18T03:04:17;12.94;86.40
68578;SHT31;61668;45.388;11.784;2022-11-18T03:06:48;12.94;86.40
68578;SHT31;61668;45.388;11.784;2022-11-18T03:09:43;12.92;86.41
68578;SHT31;61668;45.388;11.784;2022-11-18T03:12:15;12.89;86.40
68578;SHT31;61668;45.388;11.784;2022-11-18T03:17:57;12.86;86.51
68578;SHT31;61668;45.388;11.784;2022-11-18T03:20:32;12.87;86.51
68578;SHT31;61668;45.388;11.784;2022-11-18T03:26:28;12.96;86.50
68578;SHT31;61668;45.388;11.784;2022-11-18T03:29:33;13.00;86.56
68578;SHT31;61668;45.388;11.784;2022-11-18T03:31:56;13.02;86.33
68578;SHT31;61668;45.388;11.784;2022-11-18T03:34:35;13.03;86.31
68578;SHT31;61668;45.388;11.784;2022-11-18T03:37:05;13.03;86.30
68578;SHT31;61668;45.388;11.784;2022-11-18T03:42:29;13.03;86.27
68578;SHT31;61668;45.388;11.784;2022-11-18T03:45:01;13.02;86.26
68578;SHT31;61668;45.388;11.784;2022-11-18T03:47:43;13.03;86.29
68578;SHT31;61668;45.388;11.784;2022-11-18T03:50:18;13.03;86.25
68578;SHT31;61668;45.388;11.784;2022-11-18T03:52:47;13.04;86.30
68578;SHT31;61668;45.388;11.784;2022-11-18T03:55:22;13.05;86.36
68578;SHT31;61668;45.388;11.784;2022-11-18T04:00:44;13.07;86.20
68578;SHT31;61668;45.388;11.784;2022-11-18T04:03:15;13.06;86.25
68578;SHT31;61668;45.388;11.784;2022-11-18T04:05:41;13.06;86.28
68578;SHT31;61668;45.388;11.784;2022-11-18T04:08:12;13.05;86.21
68578;SHT31;61668;45.388;11.784;2022-11-18T04:10:46;13.06;86.29
68578;SHT31;61668;45.388;11.784;2022-11-18T04:13:26;13.07;86.24
68578;SHT31;61668;45.388;11.784;2022-11-18T04:15:56;13.06;86.26
68578;SHT31;61668;45.388;11.784;2022-11-18T04:18:21;13.07;86.31
68578;SHT31;61668;45.388;11.784;2022-11-18T04:20:47;13.08;86.19
68578;SHT31;61668;45.388;11.784;2022-11-18T04:23:12;13.06;86.18
68578;SHT31;61668;45.388;11.784;2022-11-18T04:25:38;13.06;86.25
68578;SHT31;61668;45.388;11.784;2022-11-18T04:28:03;13.05;86.30
68578;SHT31;61668;45.388;11.784;2022-11-18T04:30:30;13.07;86.40
68578;SHT31;61668;45.388;11.784;2022-11-18T04:32:56;13.08;86.31
68578;SHT31;61668;45.388;11.784;2022-11-18T04:35:22;13.08;86.28
68578;SHT31;61668;45.388;11.784;2022-11-18T04:37:48;13.07;86.23
68578;SHT31;61668;45.388;11.784;2022-11-18T04:40:13;13.07;86.27
68578;SHT31;61668;45.388;11.784;2022-11-18T04:42:39;13.06;86.17
68578;SHT31;61668;45.388;11.784;2022-11-18T04:45:05;13.04;86.17
68578;SHT31;61668;45.388;11.784;2022-11-18T04:47:31;13.02;86.22
68578;SHT31;61668;45.388;11.784;2022-11-18T04:49:57;13.01;86.30
68578;SHT31;61668;45.388;11.784;2022-11-18T04:52:22;12.99;86.27
68578;SHT31;61668;45.388;11.784;2022-11-18T04:54:48;12.99;86.24
68578;SHT31;61668;45.388;11.784;2022-11-18T04:57:13;12.97;86.33
68578;SHT31;61668;45.388;11.784;2022-11-18T04:59:38;12.97;86.40
68578;SHT31;61668;45.388;11.784;2022-11-18T05:02:04;12.98;86.37
68578;SHT31;61668;45.388;11.784;2022-11-18T05:04:30;12.97;86.31
68578;SHT31;61668;45.388;11.784;2022-11-18T05:06:59;12.95;86.30
68578;SHT31;61668;45.388;11.784;2022-11-18T05:09:27;12.93;86.30
68578;SHT31;61668;45.388;11.784;2022-11-18T05:11:53;12.90;86.31
68578;SHT31;61668;45.388;11.784;2022-11-18T05:14:37;12.89;86.37
68578;SHT31;61668;45.388;11.784;2022-11-18T05:17:04;12.89;86.40
68578;SHT31;61668;45.388;11.784;2022-11-18T05:19:31;12.87;86.42
68578;SHT31;61668;45.388;11.784;2022-11-18T05:21:57;12.87;86.50
68578;SHT31;61668;45.388;11.784;2022-11-18T05:24:22;12.87;86.51
68578;SHT31;61668;45.388;11.784;2022-11-18T05:26:49;12.89;86.50
68578;SHT31;61668;45.388;11.784;2022-11-18T05:29:17;12.88;86.48
68578;SHT31;61668;45.388;11.784;2022-11-18T05:31:43;12.88;86.49
68578;SHT31;61668;45.388;11.784;2022-11-18T05:34:11;12.87;86.57
68578;SHT31;61668;45.388;11.784;2022-11-18T05:36:37;12.89;86.60
68578;SHT31;61668;45.388;11.784;2022-11-18T05:39:02;12.89;86.50
68578;SHT31;61668;45.388;11.784;2022-11-18T05:41:28;12.90;86.51
68578;SHT31;61668;45.388;11.784;2022-11-18T05:44:13;12.90;86.54
68578;SHT31;61668;45.388;11.784;2022-11-18T05:46:39;12.88;86.52
68578;SHT31;61668;45.388;11.784;2022-11-18T05:49:05;12.87;86.49
68578;SHT31;61668;45.388;11.784;2022-11-18T05:51:31;12.85;86.47
68578;SHT31;61668;45.388;11.784;2022-11-18T05:53:58;12.82;86.48
68578;SHT31;61668;45.388;11.784;2022-11-18T05:56:28;12.80;86.51
68578;SHT31;61668;45.388;11.784;2022-11-18T05:59:05;12.77;86.60
68578;SHT31;61668;45.388;11.784;2022-11-18T06:04:31;12.74;86.61
68578;SHT31;61668;45.388;11.784;2022-11-18T06:07:05;12.74;86.67
68578;SHT31;61668;45.388;11.784;2022-11-18T06:09:54;12.75;86.78
68578;SHT31;61668;45.388;11.784;2022-11-18T06:12:24;12.75;86.76
68578;SHT31;61668;45.388;11.784;2022-11-18T06:14:59;12.75;86.76
68578;SHT31;61668;45.388;11.784;2022-11-18T06:17:44;12.75;86.72
68578;SHT31;61668;45.388;11.784;2022-11-18T06:20:18;12.75;86.71
68578;SHT31;61668;45.388;11.784;2022-11-18T06:22:46;12.74;86.67
68578;SHT31;61668;45.388;11.784;2022-11-18T06:25:13;12.73;86.62
68578;SHT31;61668;45.388;11.784;2022-11-18T06:27:39;12.73;86.65
68578;SHT31;61668;45.388;11.784;2022-11-18T06:30:06;12.72;86.67
68578;SHT31;61668;45.388;11.784;2022-11-18T06:32:33;12.72;86.68
68578;SHT31;61668;45.388;11.784;2022-11-18T06:34:58;12.73;86.70
68578;SHT31;61668;45.388;11.784;2022-11-18T06:37:24;12.73;86.61
68578;SHT31;61668;45.388;11.784;2022-11-18T06:39:49;12.75;86.60
68578;SHT31;61668;45.388;11.784;2022-11-18T06:42:14;12.79;86.51
68578;SHT31;61668;45.388;11.784;2022-11-18T06:45:00;12.81;86.31
68578;SHT31;61668;45.388;11.784;2022-11-18T06:47:27;12.83;86.23
68578;SHT31;61668;45.388;11.784;2022-11-18T06:49:53;12.84;86.19
68578;SHT31;61668;45.388;11.784;2022-11-18T06:52:18;12.86;86.16
68578;SHT31;61668;45.388;11.784;2022-11-18T06:54:43;12.88;86.13
68578;SHT31;61668;45.388;11.784;2022-11-18T06:57:09;12.93;86.16
68578;SHT31;61668;45.388;11.784;2022-11-18T06:59:34;12.96;86.18
68578;SHT31;61668;45.388;11.784;2022-11-18T07:02:00;12.98;86.06
68578;SHT31;61668;45.388;11.784;2022-11-18T07:04:25;13.00;85.91
68578;SHT31;61668;45.388;11.784;2022-11-18T07:06:51;13.01;85.90
68578;SHT31;61668;45.388;11.784;2022-11-18T07:09:16;13.03;85.79
68578;SHT31;61668;45.388;11.784;2022-11-18T07:11:42;13.04;85.71
68578;SHT31;61668;45.388;11.784;2022-11-18T07:14:07;13.05;85.77
68578;SHT31;61668;45.388;11.784;2022-11-18T07:16:34;13.06;85.77
68578;SHT31;61668;45.388;11.784;2022-11-18T07:19:00;13.09;85.74
68578;SHT31;61668;45.388;11.784;2022-11-18T07:21:35;13.12;85.91
68578;SHT31;61668;45.388;11.784;2022-11-18T07:24:03;13.16;85.87
68578;SHT31;61668;45.388;11.784;2022-11-18T07:26:33;13.21;85.67
68578;SHT31;61668;45.388;11.784;2022-11-18T07:29:00;13.24;85.54
68578;SHT31;61668;45.388;11.784;2022-11-18T07:31:25;13.28;85.51
68578;SHT31;61668;45.388;11.784;2022-11-18T07:33:51;13.33;85.34
68578;SHT31;61668;45.388;11.784;2022-11-18T07:36:20;13.39;85.24
68578;SHT31;61668;45.388;11.784;2022-11-18T07:38:49;13.44;85.04
68578;SHT31;61668;45.388;11.784;2022-11-18T07:41:16;13.48;84.97
68578;SHT31;61668;45.388;11.784;2022-11-18T07:43:50;13.49;84.85
68578;SHT31;61668;45.388;11.784;2022-11-18T07:46:24;13.51;84.80
68578;SHT31;61668;45.388;11.784;2022-11-18T07:48:54;13.51;84.70
68578;SHT31;61668;45.388;11.784;2022-11-18T07:51:23;13.50;84.65
68578;SHT31;61668;45.388;11.784;2022-11-18T07:53:54;13.49;84.60
68578;SHT31;61668;45.388;11.784;2022-11-18T07:56:20;13.48;84.68
68578;SHT31;61668;45.388;11.784;2022-11-18T07:58:46;13.48;84.75
68578;SHT31;61668;45.388;11.784;2022-11-18T08:03:48;13.50;84.92
68578;SHT31;61668;45.388;11.784;2022-11-18T08:06:14;13.51;84.85
68578;SHT31;61668;45.388;11.784;2022-11-18T08:08:43;13.51;84.81
68578;SHT31;61668;45.388;11.784;2022-11-18T08:11:10;13.52;84.81
68578;SHT31;61668;45.388;11.784;2022-11-18T08:13:42;13.56;84.75
68578;SHT31;61668;45.388;11.784;2022-11-18T08:16:20;13.58;84.79
68578;SHT31;61668;45.388;11.784;2022-11-18T08:18:49;13.64;84.75
68578;SHT31;61668;45.388;11.784;2022-11-18T08:21:16;13.64;84.47
68578;SHT31;61668;45.388;11.784;2022-11-18T08:23:47;13.65;84.46
68578;SHT31;61668;45.388;11.784;2022-11-18T08:26:18;13.63;84.21
68578;SHT31;61668;45.388;11.784;2022-11-18T08:28:44;13.63;84.19
68578;SHT31;61668;45.388;11.784;2022-11-18T08:33:42;13.65;84.07
68578;SHT31;61668;45.388;11.784;2022-11-18T08:36:18;13.69;83.96
68578;SHT31;61668;45.388;11.784;2022-11-18T08:38:47;13.71;83.72
68578;SHT31;61668;45.388;11.784;2022-11-18T08:41:18;13.72;83.68
68578;SHT31;61668;45.388;11.784;2022-11-18T08:43:51;13.80;83.44
68578;SHT31;61668;45.388;11.784;2022-11-18T08:46:16;13.97;83.26
68578;SHT31;61668;45.388;11.784;2022-11-18T08:48:42;14.28;82.47
68578;SHT31;61668;45.388;11.784;2022-11-18T08:51:09;14.61;81.89
68578;SHT31;61668;45.388;11.784;2022-11-18T08:53:36;14.93;81.12
68578;SHT31;61668;45.388;11.784;2022-11-18T08:56:01;15.26;80.33
68578;SHT31;61668;45.388;11.784;2022-11-18T08:58:27;15.56;79.91
68578;SHT31;61668;45.388;11.784;2022-11-18T09:00:53;15.88;78.98
68578;SHT31;61668;45.388;11.784;2022-11-18T09:03:19;16.15;78.46
68578;SHT31;61668;45.388;11.784;2022-11-18T09:05:44;16.47;77.91
68578;SHT31;61668;45.388;11.784;2022-11-18T09:08:10;16.73;76.98
68578;SHT31;61668;45.388;11.784;2022-11-18T09:10:35;16.99;76.49
68578;SHT31;61668;45.388;11.784;2022-11-18T09:13:02;17.22;75.75
68578;SHT31;61668;45.388;11.784;2022-11-18T09:15:28;17.38;74.85
68578;SHT31;61668;45.388;11.784;2022-11-18T09:17:55;17.46;73.86
68578;SHT31;61668;45.388;11.784;2022-11-18T09:20:22;17.51;73.97
68578;SHT31;61668;45.388;11.784;2022-11-18T09:22:48;17.62;74.04
68578;SHT31;61668;45.388;11.784;2022-11-18T09:25:13;17.75;73.53
68578;SHT31;61668;45.388;11.784;2022-11-18T09:27:39;17.91;73.28
68578;SHT31;61668;45.388;11.784;2022-11-18T09:30:04;18.08;72.26
68578;SHT31;61668;45.388;11.784;2022-11-18T09:32:31;18.17;70.79
68578;SHT31;61668;45.388;11.784;2022-11-18T09:34:57;18.25;71.00
68578;SHT31;61668;45.388;11.784;2022-11-18T09:37:23;18.19;70.76
68578;SHT31;61668;45.388;11.784;2022-11-18T09:39:48;18.04;70.73
68578;SHT31;61668;45.388;11.784;2022-11-18T09:45:27;17.59;71.32
68578;SHT31;61668;45.388;11.784;2022-11-18T09:48:18;17.37;71.46
68578;SHT31;61668;45.388;11.784;2022-11-18T09:51:08;17.21;72.10
68578;SHT31;61668;45.388;11.784;2022-11-18T09:53:35;17.11;72.38
68578;SHT31;61668;45.388;11.784;2022-11-18T09:56:11;16.99;72.29
68578;SHT31;61668;45.388;11.784;2022-11-18T09:58:40;16.90;72.65
68578;SHT31;61668;45.388;11.784;2022-11-18T10:01:12;16.83;72.66
68578;SHT31;61668;45.388;11.784;2022-11-18T10:03:44;16.78;72.93
68578;SHT31;61668;45.388;11.784;2022-11-18T10:06:15;16.73;73.07
68578;SHT31;61668;45.388;11.784;2022-11-18T10:22:57;16.24;74.20
68578;SHT31;61668;45.388;11.784;2022-11-18T10:25:30;16.18;74.35
68578;SHT31;61668;45.388;11.784;2022-11-18T10:27:55;16.16;74.63
68578;SHT31;61668;45.388;11.784;2022-11-18T10:30:46;16.13;74.60
68578;SHT31;61668;45.388;11.784;2022-11-18T10:35:46;16.07;74.66
68578;SHT31;61668;45.388;11.784;2022-11-18T10:46:18;15.96;75.23
68578;SHT31;61668;45.388;11.784;2022-11-18T10:51:33;15.93;74.97
68578;SHT31;61668;45.388;11.784;2022-11-18T10:54:21;15.94;75.05
68578;SHT31;61668;45.388;11.784;2022-11-18T10:56:52;15.95;74.90
68578;SHT31;61668;45.388;11.784;2022-11-18T10:59:41;15.95;74.91
68578;SHT31;61668;45.388;11.784;2022-11-18T11:02:30;15.96;74.91
68578;SHT31;61668;45.388;11.784;2022-11-18T11:05:20;15.96;75.03
68578;SHT31;61668;45.388;11.784;2022-11-18T11:10:25;16.03;74.58
68578;SHT31;61668;45.388;11.784;2022-11-18T11:12:52;16.04;74.47
68578;SHT31;61668;45.388;11.784;2022-11-18T11:15:43;16.05;74.45
68578;SHT31;61668;45.388;11.784;2022-11-18T11:18:17;16.08;74.50
68578;SHT31;61668;45.388;11.784;2022-11-18T11:23:43;16.19;74.60
68578;SHT31;61668;45.388;11.784;2022-11-18T11:43:21;16.24;74.05
68578;SHT31;61668;45.388;11.784;2022-11-18T12:00:00;16.04;73.52
68578;SHT31;61668;45.388;11.784;2022-11-18T12:05:44;16.07;74.31
68578;SHT31;61668;45.388;11.784;2022-11-18T12:08:18;16.11;73.98
68578;SHT31;61668;45.388;11.784;2022-11-18T12:10:52;16.15;73.92
68578;SHT31;61668;45.388;11.784;2022-11-18T12:13:27;16.21;74.20
68578;SHT31;61668;45.388;11.784;2022-11-18T12:19:10;16.32;73.13
68578;SHT31;61668;45.388;11.784;2022-11-18T12:26:42;16.30;72.86
68578;SHT31;61668;45.388;11.784;2022-11-18T12:31:53;16.23;72.59
68578;SHT31;61668;45.388;11.784;2022-11-18T12:42:38;16.13;72.75
68578;SHT31;61668;45.388;11.784;2022-11-18T12:53:49;16.17;72.61
68578;SHT31;61668;45.388;11.784;2022-11-18T12:59:00;16.17;72.77
68578;SHT31;61668;45.388;11.784;2022-11-18T13:01:28;16.17;72.79
68578;SHT31;61668;45.388;11.784;2022-11-18T13:04:08;16.16;72.78
68578;SHT31;61668;45.388;11.784;2022-11-18T13:06:40;16.17;72.90
68578;SHT31;61668;45.388;11.784;2022-11-18T13:09:17;16.17;72.68
68578;SHT31;61668;45.388;11.784;2022-11-18T13:17:23;16.16;72.82
68578;SHT31;61668;45.388;11.784;2022-11-18T13:20:20;16.15;72.48
68578;SHT31;61668;45.388;11.784;2022-11-18T13:22:58;16.14;72.53
68578;SHT31;61668;45.388;11.784;2022-11-18T13:26:04;16.12;72.81
68578;SHT31;61668;45.388;11.784;2022-11-18T13:31:32;16.12;73.33
68578;SHT31;61668;45.388;11.784;2022-11-18T13:36:52;16.10;73.24
68578;SHT31;61668;45.388;11.784;2022-11-18T13:42:00;16.06;73.32
68578;SHT31;61668;45.388;11.784;2022-11-18T13:44:43;16.06;73.34
68578;SHT31;61668;45.388;11.784;2022-11-18T13:47:34;16.05;73.43
68578;SHT31;61668;45.388;11.784;2022-11-18T13:55:44;15.99;73.52
68578;SHT31;61668;45.388;11.784;2022-11-18T14:00:42;15.98;73.62
68578;SHT31;61668;45.388;11.784;2022-11-18T14:03:21;15.97;73.49
68578;SHT31;61668;45.388;11.784;2022-11-18T14:05:54;15.95;73.52
68578;SHT31;61668;45.388;11.784;2022-11-18T14:08:24;15.95;73.67
68578;SHT31;61668;45.388;11.784;2022-11-18T14:10:55;15.94;73.65
68578;SHT31;61668;45.388;11.784;2022-11-18T14:13:46;15.91;73.51
68578;SHT31;61668;45.388;11.784;2022-11-18T14:18:43;15.86;73.72
68578;SHT31;61668;45.388;11.784;2022-11-18T14:21:11;15.84;73.88
68578;SHT31;61668;45.388;11.784;2022-11-18T14:23:40;15.80;73.86
68578;SHT31;61668;45.388;11.784;2022-11-18T14:26:08;15.77;73.87
68578;SHT31;61668;45.388;11.784;2022-11-18T14:28:35;15.73;73.89
68578;SHT31;61668;45.388;11.784;2022-11-18T14:33:36;15.68;74.21
68578;SHT31;61668;45.388;11.784;2022-11-18T14:36:15;15.64;74.25
68578;SHT31;61668;45.388;11.784;2022-11-18T14:38:45;15.60;74.16
68578;SHT31;61668;45.388;11.784;2022-11-18T14:41:16;15.56;74.32
68578;SHT31;61668;45.388;11.784;2022-11-18T14:44:03;15.50;74.42
68578;SHT31;61668;45.388;11.784;2022-11-18T14:46:29;15.46;74.54
68578;SHT31;61668;45.388;11.784;2022-11-18T14:48:56;15.42;74.73
68578;SHT31;61668;45.388;11.784;2022-11-18T14:51:22;15.37;74.80
68578;SHT31;61668;45.388;11.784;2022-11-18T14:53:48;15.34;74.90
68578;SHT31;61668;45.388;11.784;2022-11-18T14:56:16;15.29;75.05
68578;SHT31;61668;45.388;11.784;2022-11-18T14:58:53;15.26;75.17
68578;SHT31;61668;45.388;11.784;2022-11-18T15:01:19;15.21;75.21
68578;SHT31;61668;45.388;11.784;2022-11-18T15:03:45;15.17;75.30
68578;SHT31;61668;45.388;11.784;2022-11-18T15:06:12;15.13;75.43
68578;SHT31;61668;45.388;11.784;2022-11-18T15:08:42;15.09;75.54
68578;SHT31;61668;45.388;11.784;2022-11-18T15:11:12;15.05;75.65
68578;SHT31;61668;45.388;11.784;2022-11-18T15:13:38;15.01;75.72
68578;SHT31;61668;45.388;11.784;2022-11-18T15:18:43;14.91;75.97
68578;SHT31;61668;45.388;11.784;2022-11-18T15:21:12;14.88;76.10
68578;SHT31;61668;45.388;11.784;2022-11-18T15:23:38;14.86;76.08
68578;SHT31;61668;45.388;11.784;2022-11-18T15:26:14;14.82;76.21
68578;SHT31;61668;45.388;11.784;2022-11-18T15:28:59;14.82;76.43
68578;SHT31;61668;45.388;11.784;2022-11-18T15:31:25;14.80;76.47
68578;SHT31;61668;45.388;11.784;2022-11-18T15:33:51;14.78;76.49
68578;SHT31;61668;45.388;11.784;2022-11-18T15:36:21;14.76;76.62
68578;SHT31;61668;45.388;11.784;2022-11-18T15:38:49;14.73;76.62
68578;SHT31;61668;45.388;11.784;2022-11-18T15:43:57;14.66;76.71
68578;SHT31;61668;45.388;11.784;2022-11-18T15:46:24;14.61;76.73
68578;SHT31;61668;45.388;11.784;2022-11-18T15:48:52;14.56;76.70
68578;SHT31;61668;45.388;11.784;2022-11-18T15:51:19;14.50;76.70
68578;SHT31;61668;45.388;11.784;2022-11-18T15:53:46;14.44;76.79
68578;SHT31;61668;45.388;11.784;2022-11-18T15:56:12;14.37;76.84
68578;SHT31;61668;45.388;11.784;2022-11-18T15:59:02;14.29;76.99
68578;SHT31;61668;45.388;11.784;2022-11-18T16:01:31;14.22;77.10
68578;SHT31;61668;45.388;11.784;2022-11-18T16:04:00;14.14;77.19
68578;SHT31;61668;45.388;11.784;2022-11-18T16:06:27;14.10;77.29
68578;SHT31;61668;45.388;11.784;2022-11-18T16:08:53;14.05;77.41
68578;SHT31;61668;45.388;11.784;2022-11-18T16:11:20;14.02;77.50
68578;SHT31;61668;45.388;11.784;2022-11-18T16:14:05;13.97;77.62
68578;SHT31;61668;45.388;11.784;2022-11-18T16:16:33;13.90;77.76
68578;SHT31;61668;45.388;11.784;2022-11-18T16:19:02;13.84;77.89
68578;SHT31;61668;45.388;11.784;2022-11-18T16:21:31;13.75;78.05
68578;SHT31;61668;45.388;11.784;2022-11-18T16:23:59;13.71;78.19
68578;SHT31;61668;45.388;11.784;2022-11-18T16:26:27;13.67;78.24
68578;SHT31;61668;45.388;11.784;2022-11-18T16:28:55;13.63;78.37
68578;SHT31;61668;45.388;11.784;2022-11-18T16:31:21;13.60;78.49
68578;SHT31;61668;45.388;11.784;2022-11-18T16:36:48;13.56;78.60
68578;SHT31;61668;45.388;11.784;2022-11-18T16:39:17;13.53;78.66
68578;SHT31;61668;45.388;11.784;2022-11-18T16:41:48;13.49;78.67
68578;SHT31;61668;45.388;11.784;2022-11-18T16:44:13;13.43;78.73
68578;SHT31;61668;45.388;11.784;2022-11-18T16:46:42;13.36;78.79
68578;SHT31;61668;45.388;11.784;2022-11-18T16:49:12;13.29;78.84
68578;SHT31;61668;45.388;11.784;2022-11-18T16:51:40;13.21;79.00
68578;SHT31;61668;45.388;11.784;2022-11-18T16:54:13;13.15;79.18
68578;SHT31;61668;45.388;11.784;2022-11-18T16:56:44;13.09;79.34
68578;SHT31;61668;45.388;11.784;2022-11-18T16:59:28;13.04;79.41
68578;SHT31;61668;45.388;11.784;2022-11-18T17:01:55;12.98;79.52
68578;SHT31;61668;45.388;11.784;2022-11-18T17:04:23;12.93;79.67
68578;SHT31;61668;45.388;11.784;2022-11-18T17:06:50;12.88;79.79
68578;SHT31;61668;45.388;11.784;2022-11-18T17:09:18;12.81;79.90
68578;SHT31;61668;45.388;11.784;2022-11-18T17:11:46;12.72;80.03
68578;SHT31;61668;45.388;11.784;2022-11-18T17:14:12;12.64;80.13
68578;SHT31;61668;45.388;11.784;2022-11-18T17:16:38;12.57;80.24
68578;SHT31;61668;45.388;11.784;2022-11-18T17:19:04;12.50;80.38
68578;SHT31;61668;45.388;11.784;2022-11-18T17:21:30;12.44;80.40
68578;SHT31;61668;45.388;11.784;2022-11-18T17:23:55;12.41;80.41
68578;SHT31;61668;45.388;11.784;2022-11-18T17:26:23;12.36;80.49
68578;SHT31;61668;45.388;11.784;2022-11-18T17:28:55;12.32;80.58
68578;SHT31;61668;45.388;11.784;2022-11-18T17:31:21;12.28;80.68
68578;SHT31;61668;45.388;11.784;2022-11-18T17:33:49;12.24;80.67
68578;SHT31;61668;45.388;11.784;2022-11-18T17:36:17;12.20;80.70
68578;SHT31;61668;45.388;11.784;2022-11-18T17:38:46;12.16;80.81
68578;SHT31;61668;45.388;11.784;2022-11-18T17:41:14;12.12;80.89
68578;SHT31;61668;45.388;11.784;2022-11-18T17:44:03;12.08;80.94
68578;SHT31;61668;45.388;11.784;2022-11-18T17:46:31;12.02;81.01
68578;SHT31;61668;45.388;11.784;2022-11-18T17:48:57;11.97;81.03
68578;SHT31;61668;45.388;11.784;2022-11-18T17:51:26;11.92;81.05
68578;SHT31;61668;45.388;11.784;2022-11-18T17:53:53;11.88;81.08
68578;SHT31;61668;45.388;11.784;2022-11-18T17:56:19;11.85;81.21
68578;SHT31;61668;45.388;11.784;2022-11-18T17:58:45;11.82;81.22
68578;SHT31;61668;45.388;11.784;2022-11-18T18:01:13;11.77;81.16
68578;SHT31;61668;45.388;11.784;2022-11-18T18:03:40;11.73;81.29
68578;SHT31;61668;45.388;11.784;2022-11-18T18:06:07;11.70;81.30
68578;SHT31;61668;45.388;11.784;2022-11-18T18:08:34;11.68;81.38
68578;SHT31;61668;45.388;11.784;2022-11-18T18:11:01;11.67;81.47
68578;SHT31;61668;45.388;11.784;2022-11-18T18:13:45;11.64;81.53
68578;SHT31;61668;45.388;11.784;2022-11-18T18:16:30;11.60;81.69
68578;SHT31;61668;45.388;11.784;2022-11-18T18:18:58;11.57;81.72
68578;SHT31;61668;45.388;11.784;2022-11-18T18:21:25;11.53;81.70
68578;SHT31;61668;45.388;11.784;2022-11-18T18:23:51;11.48;81.67
68578;SHT31;61668;45.388;11.784;2022-11-18T18:26:17;11.45;81.71
68578;SHT31;61668;45.388;11.784;2022-11-18T18:28:43;11.41;81.83